Time;durP1;ratioP1;P1;durP2;ratioP2;P2;SDS_P1;SDS_P2;PMS_P1;PMS_P2;Temp;Humidity;BMP_temperature;BMP_pressure;BME280_temperature;BME280_humidity;BME280_pressure;Samples;Min_cycle;Max_cycle;Signal;HPM_P1;HPM_P2
2022/05/25 20:03:54;;;;;;;;;;;;;;;14.70;100.00;100478.91;10405789;28;20352;-64
2022/05/25 20:08:57;;;;;;;;;;;;;;;13.74;100.00;100489.78;10404692;28;19936;-65
2022/05/25 20:14:01;;;;;;;;;;;;;;;13.54;100.00;100486.72;10404239;28;20037;-68
2022/05/25 20:19:05;;;;;;;;;;;;;;;13.30;100.00;100495.88;10403913;28;19939;-65
2022/05/25 20:24:09;;;;;;;;;;;;;;;13.22;100.00;100491.72;10403827;28;20019;-64
2022/05/25 20:29:12;;;;;;;;;;;;;;;13.35;100.00;100488.84;10403791;28;19929;-64
2022/05/25 20:34:16;;;;;;;;;;;;;;;13.32;100.00;100488.03;10403520;28;19925;-66
2022/05/25 20:39:20;;;;;;;;;;;;;;;13.36;100.00;100484.47;10403301;28;20247;-66
2022/05/25 20:44:23;;;;;;;;;;;;;;;13.41;100.00;100486.09;10403196;28;19925;-66
2022/05/25 20:49:28;;;;;;;;;;;;;;;13.37;100.00;100489.69;10403159;28;19937;-67
2022/05/25 20:54:31;;;;;;;;;;;;;;;13.34;100.00;100481.88;10403061;28;20029;-71
2022/05/25 20:59:34;;;;;;;;;;;;;;;13.43;100.00;100484.31;10402520;28;19936;-69
2022/05/25 21:04:39;;;;;;;;;;;;;;;13.49;100.00;100491.19;10402710;28;20020;-68
2022/05/25 21:09:44;;;;;;;;;;;;;;;13.53;100.00;100478.03;10402379;28;19926;-69
2022/05/25 21:14:49;;;;;;;;;;;;;;;13.52;100.00;100480.66;10374880;28;19930;-70
2022/05/25 21:19:53;;;;;;;;;;;;;;;13.54;100.00;100474.56;10374917;28;19974;-68
2022/05/25 21:24:57;;;;;;;;;;;;;;;13.48;100.00;100471.19;10374650;28;19955;-70
2022/05/25 21:30:00;;;;;;;;;;;;;;;13.47;100.00;100480.78;10374625;28;20266;-69
2022/05/25 21:35:05;;;;;;;;;;;;;;;13.39;100.00;100476.59;10374363;28;19936;-69
2022/05/25 21:40:08;;;;;;;;;;;;;;;13.29;100.00;100477.66;10373600;28;19925;-65
2022/05/25 21:45:14;;;;;;;;;;;;;;;13.21;100.00;100474.34;10020328;28;10000561;-65
2022/05/25 21:50:19;;;;;;;;;;;;;;;13.15;100.00;100477.91;10383782;28;19926;-67
2022/05/25 21:55:24;;;;;;;;;;;;;;;13.11;100.00;100471.06;10371027;28;20362;-66
2022/05/25 22:00:38;;;;;;;;;;;;;;;13.07;100.00;100461.56;10370486;28;20460;-67
2022/05/25 22:05:42;;;;;;;;;;;;;;;13.17;100.00;100463.09;10367306;28;19930;-69
2022/05/25 22:10:46;;;;;;;;;;;;;;;13.12;100.00;100454.53;10357509;28;20410;-66
2022/05/25 22:15:49;;;;;;;;;;;;;;;13.08;100.00;100458.06;10370611;28;19929;-67
2022/05/25 22:21:02;;;;;;;;;;;;;;;13.08;100.00;100460.66;10359396;28;19930;-69
2022/05/25 22:26:05;;;;;;;;;;;;;;;13.23;100.00;100456.94;10343912;28;20290;-68
2022/05/25 22:31:08;;;;;;;;;;;;;;;13.35;100.00;100456.69;10363294;28;19982;-66
2022/05/25 22:36:13;;;;;;;;;;;;;;;13.27;100.00;100449.00;10369739;28;19930;-68
2022/05/25 22:41:16;;;;;;;;;;;;;;;13.33;100.00;100481.91;10347318;28;19930;-67
2022/05/25 22:46:22;;;;;;;;;;;;;;;13.49;100.00;100468.56;10361720;28;19986;-63
2022/05/25 22:51:27;;;;;;;;;;;;;;;13.49;100.00;100465.09;10371176;28;19926;-63
2022/05/25 22:56:30;;;;;;;;;;;;;;;13.46;100.00;100460.78;10373454;28;19935;-63
2022/05/25 23:01:33;;;;;;;;;;;;;;;13.28;100.00;100461.16;10373136;28;19925;-64
2022/05/25 23:06:37;;;;;;;;;;;;;;;13.21;100.00;100446.53;10345565;28;19926;-66
2022/05/25 23:11:40;;;;;;;;;;;;;;;13.08;100.00;100426.78;10332513;28;19926;-68
2022/05/25 23:16:43;;;;;;;;;;;;;;;13.10;100.00;100434.59;10332260;28;19926;-69
2022/05/25 23:21:48;;;;;;;;;;;;;;;13.09;100.00;100431.13;10354563;28;19925;-67
2022/05/25 23:26:51;;;;;;;;;;;;;;;13.10;100.00;100438.06;10372671;28;19925;-64
2022/05/25 23:31:54;;;;;;;;;;;;;;;13.17;100.00;100439.66;10372427;28;19926;-65
2022/05/25 23:37:00;;;;;;;;;;;;;;;13.00;100.00;100428.66;10346388;28;19952;-67
2022/05/25 23:47:24;;;;;;;;;;;;;;;12.97;100.00;100405.28;10331649;28;20058;-65
2022/05/25 23:52:31;;;;;;;;;;;;;;;13.00;100.00;100389.56;10331264;28;20415;-66
2022/05/25 23:57:35;;;;;;;;;;;;;;;13.01;100.00;100383.47;10331326;28;20357;-63
